Time;durP1;ratioP1;P1;durP2;ratioP2;P2;SDS_P1;SDS_P2;PMS_P1;PMS_P2;Temp;Humidity;BMP_temperature;BMP_pressure;BME280_temperature;BME280_humidity;BME280_pressure;Samples;Min_cycle;Max_cycle;Signal;HPM_P1;HPM_P2
2022/04/17 00:01:38;;;;;;;10.38;5.72;;;22.90;35.20;;;;;;6133939;28;80641;-72
2022/04/17 00:04:40;;;;;;;8.63;4.75;;;22.90;35.20;;;;;;6134084;28;80434;-71
2022/04/17 00:07:40;;;;;;;9.68;5.82;;;22.90;35.20;;;;;;6133482;28;80516;-71
2022/04/17 00:10:41;;;;;;;9.43;5.55;;;22.90;35.30;;;;;;6134011;28;80760;-72
2022/04/17 00:13:44;;;;;;;10.02;5.57;;;22.90;35.20;;;;;;6133217;28;80721;-72
2022/04/17 00:16:44;;;;;;;9.35;5.40;;;22.90;35.20;;;;;;6133006;28;80473;-73
2022/04/17 00:19:45;;;;;;;10.85;6.00;;;22.90;35.20;;;;;;6133508;28;80750;-71
2022/04/17 00:22:46;;;;;;;12.02;6.07;;;22.90;35.20;;;;;;6131874;28;81809;-70
2022/04/17 00:25:47;;;;;;;13.10;5.68;;;22.90;35.10;;;;;;6133429;28;80442;-71
2022/04/17 00:28:47;;;;;;;10.43;5.82;;;22.90;35.30;;;;;;6133285;28;80608;-72
2022/04/17 00:31:48;;;;;;;12.10;6.32;;;22.90;35.20;;;;;;6136559;28;81752;-73
2022/04/17 00:34:49;;;;;;;9.90;6.00;;;22.90;35.20;;;;;;6137613;28;80449;-74
2022/04/17 00:37:49;;;;;;;9.55;5.78;;;22.90;35.20;;;;;;6137686;28;80413;-73
2022/04/17 00:40:50;;;;;;;9.25;5.82;;;22.90;35.20;;;;;;6137884;28;80399;-74
2022/04/17 00:43:50;;;;;;;10.70;5.25;;;22.90;35.20;;;;;;6130966;28;81138;-74
2022/04/17 00:46:51;;;;;;;9.35;5.75;;;22.90;35.20;;;;;;6138243;28;80419;-72
2022/04/17 00:49:51;;;;;;;10.25;5.65;;;22.90;35.20;;;;;;6137220;28;80657;-70
2022/04/17 00:52:52;;;;;;;11.13;5.97;;;22.90;35.10;;;;;;6130091;28;80920;-73
2022/04/17 00:55:52;;;;;;;11.20;5.90;;;22.90;35.20;;;;;;6137659;28;80781;-70
2022/04/17 00:58:53;;;;;;;10.38;6.20;;;22.90;35.20;;;;;;6118798;28;81623;-72
2022/04/17 01:01:53;;;;;;;10.07;5.82;;;22.90;35.20;;;;;;6127319;28;81382;-73
2022/04/17 01:04:54;;;;;;;10.65;5.68;;;22.90;35.20;;;;;;6113166;28;80697;-72
2022/04/17 01:07:55;;;;;;;11.13;6.35;;;22.90;35.20;;;;;;6113082;28;80433;-72
2022/04/17 01:10:56;;;;;;;11.00;6.25;;;22.80;35.10;;;;;;6117633;28;80466;-70
2022/04/17 01:13:56;;;;;;;9.23;5.40;;;22.80;35.10;;;;;;6120644;28;80884;-71
2022/04/17 01:16:57;;;;;;;10.98;5.93;;;22.80;35.10;;;;;;6112797;28;81762;-71
2022/04/17 01:19:58;;;;;;;9.30;5.38;;;22.80;35.10;;;;;;6136162;28;80358;-70
2022/04/17 01:29:36;;;;;;;9.68;5.97;;;22.80;35.10;;;;;;6131401;28;80413;-71
2022/04/17 01:32:37;;;;;;;10.23;6.30;;;22.80;35.00;;;;;;6134885;28;80467;-71
2022/04/17 01:35:37;;;;;;;11.80;6.50;;;22.80;35.00;;;;;;6112977;28;80603;-71
2022/04/17 01:38:38;;;;;;;12.55;6.85;;;22.80;35.10;;;;;;6113601;28;80402;-71
2022/04/17 01:41:39;;;;;;;10.00;6.13;;;22.80;35.00;;;;;;6136801;28;80326;-71
2022/04/17 01:44:40;;;;;;;10.38;6.05;;;22.80;35.00;;;;;;6136465;28;80623;-70
2022/04/17 01:47:40;;;;;;;9.77;6.13;;;22.80;35.00;;;;;;6136043;28;80724;-71
2022/04/17 01:50:41;;;;;;;9.10;5.57;;;22.80;34.90;;;;;;6136666;28;80320;-71
2022/04/17 01:53:41;;;;;;;10.35;5.78;;;22.80;35.00;;;;;;6136252;28;80558;-71
2022/04/17 01:56:42;;;;;;;10.82;6.30;;;22.80;35.00;;;;;;6135751;28;80427;-71
2022/04/17 01:59:42;;;;;;;10.63;5.70;;;22.80;34.90;;;;;;6121111;28;80347;-71
2022/04/17 02:02:43;;;;;;;12.48;6.13;;;22.80;34.90;;;;;;6134485;28;84140;-72
2022/04/17 02:05:43;;;;;;;11.65;6.32;;;22.80;34.90;;;;;;6134014;28;80452;-71
2022/04/17 02:08:44;;;;;;;9.25;5.80;;;22.80;34.90;;;;;;6126321;28;80873;-70
2022/04/17 02:11:45;;;;;;;10.48;5.53;;;22.80;35.00;;;;;;6111609;28;80108;-71
2022/04/17 02:14:47;;;;;;;10.23;6.25;;;22.80;35.00;;;;;;6124645;28;80461;-72
2022/04/17 02:17:47;;;;;;;11.70;6.25;;;22.80;35.00;;;;;;6136098;28;80439;-72
2022/04/17 02:20:48;;;;;;;11.35;6.50;;;22.80;35.00;;;;;;6136168;28;80706;-71
2022/04/17 02:23:48;;;;;;;9.90;5.72;;;22.80;35.00;;;;;;6131065;28;80405;-72
2022/04/17 02:26:49;;;;;;;9.57;6.10;;;22.80;35.00;;;;;;6110575;28;83530;-73
2022/04/17 02:29:49;;;;;;;11.05;6.72;;;22.80;35.00;;;;;;6122860;28;80435;-72
2022/04/17 02:32:50;;;;;;;10.15;6.10;;;22.70;34.90;;;;;;6136204;28;80749;-72
2022/04/17 02:35:50;;;;;;;12.25;5.93;;;22.80;35.00;;;;;;6118034;28;82636;-72
2022/04/17 02:38:51;;;;;;;11.93;6.38;;;22.80;34.90;;;;;;6112280;28;80588;-73
2022/04/17 02:41:51;;;;;;;14.50;5.90;;;22.80;35.00;;;;;;6111708;28;80582;-72
2022/04/17 02:44:52;;;;;;;11.40;5.90;;;22.80;35.00;;;;;;6111752;28;80527;-72
2022/04/17 02:47:52;;;;;;;10.80;5.80;;;22.70;34.80;;;;;;6111200;28;80354;-72
2022/04/17 02:50:54;;;;;;;10.75;6.07;;;22.70;34.80;;;;;;6128060;28;81300;-71
2022/04/17 02:53:54;;;;;;;10.13;6.20;;;22.80;34.90;;;;;;6133268;28;80180;-72
2022/04/17 02:56:55;;;;;;;9.30;5.93;;;22.80;34.90;;;;;;6133935;28;80565;-72
2022/04/17 02:59:55;;;;;;;11.90;6.43;;;22.70;34.90;;;;;;6134437;28;80450;-72
2022/04/17 03:06:15;;;;;;;11.60;6.15;;;22.70;34.80;;;;;;6119100;28;80597;-71
2022/04/17 03:09:16;;;;;;;9.63;5.78;;;22.80;34.90;;;;;;6111698;28;80343;-71
2022/04/17 03:12:16;;;;;;;10.82;5.40;;;22.70;34.80;;;;;;6135188;28;80690;-71
2022/04/17 03:15:17;;;;;;;10.85;5.93;;;22.70;34.80;;;;;;6127838;28;80331;-72
2022/04/17 03:18:17;;;;;;;10.38;6.13;;;22.70;34.80;;;;;;6121876;28;80725;-72
2022/04/17 03:21:18;;;;;;;9.38;5.22;;;22.70;34.80;;;;;;6134729;28;80405;-71
2022/04/17 03:24:18;;;;;;;12.48;6.13;;;22.70;34.80;;;;;;6134396;28;80490;-72
2022/04/17 03:27:19;;;;;;;10.35;5.65;;;22.80;34.80;;;;;;6134445;28;80418;-72
2022/04/17 03:30:19;;;;;;;9.88;5.45;;;22.70;34.70;;;;;;6129708;28;80508;-71
2022/04/17 03:33:20;;;;;;;10.95;6.72;;;22.70;34.80;;;;;;6129243;28;80541;-72
2022/04/17 03:36:20;;;;;;;12.57;6.50;;;22.70;34.80;;;;;;6121957;28;81439;-72
2022/04/17 03:39:21;;;;;;;13.43;6.95;;;22.70;34.80;;;;;;6110582;28;80959;-72
2022/04/17 03:42:21;;;;;;;10.93;6.03;;;22.70;34.70;;;;;;6110419;28;80443;-72
2022/04/17 03:45:22;;;;;;;13.18;5.88;;;22.70;34.70;;;;;;6112971;28;80558;-72
2022/04/17 03:48:23;;;;;;;10.45;6.20;;;22.70;34.70;;;;;;6134228;28;80711;-72
2022/04/17 03:51:24;;;;;;;11.95;6.07;;;22.70;34.80;;;;;;6133709;28;80364;-71
2022/04/17 03:54:24;;;;;;;10.23;5.50;;;22.70;34.70;;;;;;6134609;28;80654;-71
2022/04/17 03:57:25;;;;;;;10.85;6.53;;;22.70;34.70;;;;;;6117016;28;80250;-71
2022/04/17 04:00:25;;;;;;;10.35;5.72;;;22.70;34.70;;;;;;6117644;28;80412;-72
2022/04/17 04:03:26;;;;;;;10.93;6.10;;;22.70;34.70;;;;;;6135705;28;80609;-71
2022/04/17 04:06:27;;;;;;;10.05;6.13;;;22.70;34.70;;;;;;6131022;28;80409;-72
2022/04/17 04:09:27;;;;;;;9.68;5.55;;;22.70;34.70;;;;;;6116259;28;81142;-71
2022/04/17 04:12:28;;;;;;;9.43;5.78;;;22.70;34.70;;;;;;6130771;28;81623;-72
2022/04/17 04:15:28;;;;;;;8.98;5.35;;;22.70;34.70;;;;;;6120106;28;80606;-72
2022/04/17 04:18:29;;;;;;;9.30;5.10;;;22.70;34.60;;;;;;6113998;28;80452;-72
2022/04/17 04:21:30;;;;;;;11.77;6.22;;;22.70;34.60;;;;;;6114444;28;80415;-72
2022/04/17 04:24:31;;;;;;;9.93;5.68;;;22.70;34.60;;;;;;6114136;28;81480;-72
2022/04/17 04:30:50;;;;;;;9.48;5.43;;;22.70;34.60;;;;;;6138866;28;80403;-72
2022/04/17 04:33:51;;;;;;;9.73;5.82;;;22.70;34.50;;;;;;6138114;28;81399;-72
2022/04/17 04:36:52;;;;;;;11.23;5.95;;;22.70;34.60;;;;;;6131438;28;80391;-72
2022/04/17 04:39:52;;;;;;;9.07;5.28;;;22.70;34.50;;;;;;6114130;28;80807;-71
2022/04/17 04:42:53;;;;;;;8.32;5.43;;;22.70;34.50;;;;;;6127419;28;80567;-72
2022/04/17 04:46:09;;;;;;;10.52;5.55;;;22.70;34.50;;;;;;6130156;28;80562;-71
2022/04/17 04:52:29;;;;;;;12.07;5.90;;;22.70;34.30;;;;;;6118834;28;84685;-70
2022/04/17 04:55:29;;;;;;;10.70;6.35;;;22.70;34.30;;;;;;6114230;28;80286;-71
2022/04/17 04:58:30;;;;;;;9.23;5.78;;;22.80;34.20;;;;;;6120624;28;80899;-71
2022/04/17 05:01:30;;;;;;;8.43;5.30;;;22.80;34.20;;;;;;6125209;28;80361;-71
2022/04/17 05:04:33;;;;;;;10.65;5.55;;;22.80;34.20;;;;;;6119177;28;80174;-71
2022/04/17 05:07:34;;;;;;;12.52;5.63;;;22.80;34.20;;;;;;6137029;28;80292;-71
2022/04/17 05:10:34;;;;;;;10.00;5.00;;;22.80;34.20;;;;;;6136809;28;80400;-70
2022/04/17 05:13:35;;;;;;;9.52;5.70;;;22.80;34.10;;;;;;6121374;28;80885;-71
2022/04/17 05:16:36;;;;;;;9.90;5.28;;;22.80;34.20;;;;;;6112307;28;87447;-71
2022/04/17 05:19:39;;;;;;;7.60;4.47;;;22.80;34.10;;;;;;6113097;28;80675;-71
2022/04/17 05:22:39;;;;;;;11.68;5.82;;;22.80;34.10;;;;;;6112542;28;80297;-71
2022/04/17 05:25:40;;;;;;;9.43;5.38;;;22.80;34.10;;;;;;6129291;28;81541;-72
2022/04/17 05:28:40;;;;;;;7.95;4.53;;;22.80;34.10;;;;;;6136610;28;82888;-72
2022/04/17 05:31:41;;;;;;;7.53;4.95;;;22.80;34.20;;;;;;6136719;28;81449;-72
2022/04/17 05:34:41;;;;;;;8.57;5.15;;;22.80;34.10;;;;;;6116511;28;80662;-72
2022/04/17 05:37:42;;;;;;;9.40;5.22;;;22.80;34.10;;;;;;6113580;28;80413;-73
2022/04/17 05:40:42;;;;;;;7.95;4.60;;;22.80;34.10;;;;;;6136500;28;80902;-73
2022/04/17 05:43:43;;;;;;;8.23;4.72;;;22.90;34.10;;;;;;6134993;28;82248;-72
2022/04/17 05:46:43;;;;;;;8.90;5.22;;;22.80;34.10;;;;;;6136862;28;80340;-72
2022/04/17 05:49:44;;;;;;;10.95;5.03;;;22.90;34.10;;;;;;6117820;28;81583;-72
2022/04/17 05:52:45;;;;;;;8.27;5.10;;;22.90;34.10;;;;;;6119612;28;81046;-72
2022/04/17 05:55:45;;;;;;;7.45;4.43;;;22.90;34.20;;;;;;6112292;28;84353;-73
2022/04/17 05:58:46;;;;;;;6.63;4.43;;;22.90;34.20;;;;;;6112721;28;80574;-74
2022/04/17 06:01:46;;;;;;;8.65;4.32;;;22.90;34.20;;;;;;6125695;28;80522;-73
2022/04/17 06:04:50;;;;;;;7.43;4.40;;;22.90;34.20;;;;;;6136105;28;80476;-74
2022/04/17 06:07:50;;;;;;;9.40;4.80;;;22.90;34.10;;;;;;6119187;28;81063;-74
2022/04/17 06:10:51;;;;;;;11.55;5.40;;;22.90;34.10;;;;;;6136545;28;80723;-73
2022/04/17 06:13:52;;;;;;;5.97;4.10;;;22.90;34.10;;;;;;6128893;28;81272;-74
2022/04/17 06:16:52;;;;;;;8.90;4.60;;;23.00;34.20;;;;;;6112508;28;80634;-74
2022/04/17 06:19:53;;;;;;;7.07;4.78;;;23.00;34.10;;;;;;6127101;28;80193;-73
2022/04/17 06:22:53;;;;;;;7.43;4.10;;;23.00;34.10;;;;;;6137220;28;81598;-73
2022/04/17 06:25:54;;;;;;;7.47;4.60;;;23.00;34.10;;;;;;6114966;28;80989;-74
2022/04/17 06:28:54;;;;;;;7.22;3.88;;;23.00;34.10;;;;;;6116659;28;80340;-74
2022/04/17 06:31:55;;;;;;;8.05;4.18;;;23.00;34.00;;;;;;6136181;28;80730;-74
2022/04/17 06:34:56;;;;;;;6.75;4.25;;;23.00;34.00;;;;;;6134034;28;81644;-75
2022/04/17 06:37:56;;;;;;;6.15;4.13;;;23.00;33.90;;;;;;6135470;28;82398;-74
2022/04/17 06:40:57;;;;;;;6.10;4.13;;;23.00;33.90;;;;;;6135487;28;80359;-74
2022/04/17 06:43:57;;;;;;;8.57;4.38;;;23.00;34.00;;;;;;6132813;28;81028;-74
2022/04/17 06:46:58;;;;;;;5.57;3.65;;;23.00;33.90;;;;;;6110488;28;81379;-74
2022/04/17 06:49:58;;;;;;;7.95;3.88;;;23.00;33.90;;;;;;6127542;28;80355;-73
2022/04/17 06:53:00;;;;;;;6.38;3.40;;;23.00;33.80;;;;;;6134950;28;80267;-73
2022/04/17 06:56:00;;;;;;;5.97;4.32;;;23.10;33.90;;;;;;6135043;28;82428;-73
2022/04/17 06:59:05;;;;;;;7.00;3.67;;;23.00;33.80;;;;;;6134084;28;80423;-73
2022/04/17 07:02:06;;;;;;;6.13;3.28;;;23.10;33.80;;;;;;6128153;28;80213;-73
2022/04/17 07:05:07;;;;;;;6.13;3.30;;;23.10;33.80;;;;;;6133035;28;83095;-73
2022/04/17 07:08:07;;;;;;;6.47;3.60;;;23.10;33.70;;;;;;6135236;28;80955;-73
2022/04/17 07:11:08;;;;;;;5.13;3.30;;;23.10;33.60;;;;;;6118663;28;80573;-73
2022/04/17 07:14:12;;;;;;;11.30;4.10;;;23.20;33.60;;;;;;6110658;28;81445;-73
2022/04/17 07:17:12;;;;;;;6.43;3.78;;;23.20;33.50;;;;;;6127167;28;80587;-75
2022/04/17 07:20:15;;;;;;;5.22;3.40;;;23.20;33.50;;;;;;6110799;28;81310;-73
2022/04/17 07:23:16;;;;;;;6.80;3.25;;;23.10;33.30;;;;;;6110886;28;81089;-73
2022/04/17 07:26:16;;;;;;;7.20;3.58;;;23.10;33.30;;;;;;6125566;28;80660;-72
2022/04/17 07:29:21;;;;;;;4.88;3.15;;;23.20;33.30;;;;;;6134919;28;80080;-72
2022/04/17 07:32:21;;;;;;;7.75;3.33;;;23.20;33.20;;;;;;6133056;28;80496;-72
2022/04/17 07:35:22;;;;;;;5.50;3.33;;;23.20;33.10;;;;;;6128672;28;80359;-72
2022/04/17 07:38:22;;;;;;;4.85;2.92;;;23.20;33.10;;;;;;6111064;28;80575;-72
2022/04/17 07:41:23;;;;;;;5.63;3.42;;;23.20;33.00;;;;;;6127853;28;81379;-73
2022/04/17 07:44:26;;;;;;;4.10;2.58;;;23.20;33.00;;;;;;6138805;28;80422;-74
2022/04/17 07:47:28;;;;;;;5.30;3.25;;;23.20;32.90;;;;;;6117163;28;81414;-72
2022/04/17 07:50:29;;;;;;;4.35;2.80;;;23.20;32.90;;;;;;6114669;28;81052;-72
2022/04/17 07:53:31;;;;;;;3.88;2.90;;;23.20;32.80;;;;;;6114213;28;80683;-71
2022/04/17 07:56:31;;;;;;;4.03;2.88;;;23.20;32.80;;;;;;6113987;28;81158;-71
2022/04/17 07:59:32;;;;;;;5.70;3.28;;;23.30;32.80;;;;;;6124619;28;80523;-72
2022/04/17 08:02:49;;;;;;;3.95;2.58;;;23.30;32.70;;;;;;6135859;28;80365;-73
2022/04/17 08:05:50;;;;;;;3.75;2.75;;;23.30;32.80;;;;;;6132257;28;81073;-73
2022/04/17 08:08:52;;;;;;;4.13;2.38;;;23.30;32.70;;;;;;6113976;28;81602;-73
2022/04/17 08:11:53;;;;;;;4.60;2.63;;;23.40;32.80;;;;;;6113827;28;80442;-74
2022/04/17 08:14:53;;;;;;;5.13;3.17;;;23.30;32.70;;;;;;6133568;28;80417;-74
2022/04/17 08:17:54;;;;;;;5.10;3.17;;;23.30;32.70;;;;;;6117890;28;80317;-73
2022/04/17 08:20:54;;;;;;;3.55;2.30;;;23.30;32.70;;;;;;6113645;28;81355;-74
2022/04/17 08:23:55;;;;;;;3.55;2.55;;;23.30;32.70;;;;;;6113764;28;81565;-74
2022/04/17 08:26:55;;;;;;;3.60;2.45;;;23.30;32.60;;;;;;6118064;28;81527;-74
2022/04/17 08:29:56;;;;;;;5.00;2.50;;;23.30;32.60;;;;;;6138102;28;81002;-73
2022/04/17 08:32:57;;;;;;;5.43;2.42;;;23.20;32.60;;;;;;6119906;28;80641;-74
2022/04/17 08:36:00;;;;;;;5.82;2.55;;;23.30;32.50;;;;;;6114851;28;80767;-73
2022/04/17 08:39:01;;;;;;;3.88;2.50;;;23.30;32.40;;;;;;6138002;28;80453;-73
2022/04/17 08:42:01;;;;;;;4.55;2.65;;;23.30;32.60;;;;;;6134079;28;81156;-73
2022/04/17 08:45:02;;;;;;;3.10;2.10;;;23.40;32.40;;;;;;6138082;28;80588;-73
2022/04/17 08:48:02;;;;;;;4.68;2.60;;;23.40;32.40;;;;;;6121689;28;80220;-73
2022/04/17 08:51:03;;;;;;;4.38;2.33;;;23.40;32.30;;;;;;6111262;28;81916;-72
2022/04/17 08:54:03;;;;;;;2.72;2.05;;;23.40;32.30;;;;;;6135394;28;80744;-70
2022/04/17 08:57:04;;;;;;;3.45;2.08;;;23.40;32.20;;;;;;6130623;28;80454;-71
2022/04/17 09:00:05;;;;;;;4.72;2.33;;;23.40;32.50;;;;;;6113040;28;81426;-71
2022/04/17 09:03:05;;;;;;;4.10;2.70;;;23.40;32.20;;;;;;6137151;28;80209;-71
2022/04/17 09:06:06;;;;;;;4.60;2.53;;;23.40;32.20;;;;;;6137664;28;80641;-71
2022/04/17 09:09:06;;;;;;;3.67;2.28;;;23.40;32.20;;;;;;6132090;28;80482;-73
2022/04/17 09:12:07;;;;;;;3.08;2.15;;;23.40;32.10;;;;;;6112969;28;80365;-73
2022/04/17 09:15:08;;;;;;;3.47;2.28;;;23.40;32.00;;;;;;6113193;28;80392;-73
2022/04/17 09:18:08;;;;;;;3.88;2.30;;;23.40;31.90;;;;;;6112885;28;80871;-73
2022/04/17 09:21:09;;;;;;;2.90;1.90;;;23.40;32.10;;;;;;6112767;28;80359;-73
2022/04/17 09:24:09;;;;;;;2.15;1.67;;;23.50;31.90;;;;;;6112618;28;80456;-73
2022/04/17 09:27:11;;;;;;;2.42;1.70;;;23.50;32.00;;;;;;6114731;28;80263;-74
2022/04/17 09:30:11;;;;;;;3.55;2.38;;;23.50;32.00;;;;;;6113668;28;81457;-73
2022/04/17 09:33:15;;;;;;;4.95;2.20;;;23.50;32.00;;;;;;6112694;28;80726;-73
2022/04/17 09:36:15;;;;;;;2.78;2.05;;;23.50;31.90;;;;;;6112118;28;80478;-73
2022/04/17 09:39:16;;;;;;;3.38;1.90;;;23.50;31.90;;;;;;6115924;28;80913;-73
2022/04/17 09:42:16;;;;;;;3.35;2.10;;;23.50;31.90;;;;;;6112276;28;80744;-73
2022/04/17 09:45:17;;;;;;;3.92;2.03;;;23.50;31.90;;;;;;6112439;28;81648;-73
2022/04/17 09:48:17;;;;;;;2.33;1.80;;;23.50;31.90;;;;;;6120357;28;81239;-73
2022/04/17 09:51:18;;;;;;;4.03;2.03;;;23.50;31.90;;;;;;6131511;28;80257;-73
2022/04/17 09:54:18;;;;;;;2.53;1.88;;;23.50;31.90;;;;;;6111865;28;81565;-73
2022/04/17 09:57:19;;;;;;;2.70;1.70;;;23.50;32.00;;;;;;6117938;28;81338;-73
2022/04/17 10:00:19;;;;;;;2.42;2.13;;;23.50;31.90;;;;;;6111609;28;80730;-74
2022/04/17 10:03:20;;;;;;;4.55;2.53;;;23.50;31.80;;;;;;6117922;28;80412;-73
2022/04/17 10:06:20;;;;;;;2.85;1.90;;;23.60;32.00;;;;;;6135893;28;81465;-73
2022/04/17 10:09:22;;;;;;;2.85;2.08;;;23.60;32.00;;;;;;6136002;28;80152;-73
2022/04/17 10:12:23;;;;;;;4.93;2.00;;;23.60;32.00;;;;;;6112786;28;81536;-72
2022/04/17 10:15:23;;;;;;;2.80;1.92;;;23.60;32.00;;;;;;6111738;28;80261;-73
2022/04/17 10:18:24;;;;;;;3.88;2.05;;;23.60;32.00;;;;;;6112103;28;80960;-72
2022/04/17 10:21:24;;;;;;;2.65;2.08;;;23.60;31.70;;;;;;6132597;28;80269;-72
2022/04/17 10:24:25;;;;;;;2.25;1.70;;;23.60;31.80;;;;;;6135772;28;80655;-73
2022/04/17 10:27:26;;;;;;;3.15;2.35;;;23.60;31.80;;;;;;6136227;28;80977;-73
2022/04/17 10:30:26;;;;;;;3.05;2.15;;;23.50;31.80;;;;;;6117818;28;81187;-73
2022/04/17 10:33:27;;;;;;;2.22;1.83;;;23.50;31.70;;;;;;6117503;28;80080;-73
2022/04/17 10:36:27;;;;;;;2.03;1.67;;;23.50;31.80;;;;;;6137474;28;80332;-73
2022/04/17 10:39:28;;;;;;;2.38;1.80;;;23.50;31.70;;;;;;6136843;28;80877;-73
2022/04/17 10:42:28;;;;;;;2.72;1.70;;;23.50;31.70;;;;;;6136353;28;80549;-73
2022/04/17 10:45:31;;;;;;;2.55;2.13;;;23.50;31.80;;;;;;6118965;28;80552;-73
2022/04/17 10:48:31;;;;;;;3.03;2.10;;;23.60;31.70;;;;;;6098657;28;81539;-73
2022/04/17 10:51:32;;;;;;;3.60;1.85;;;23.60;31.70;;;;;;6130488;28;79987;-72
2022/04/17 10:54:32;;;;;;;2.47;1.77;;;23.60;32.00;;;;;;6127393;28;81964;-72
2022/04/17 10:57:33;;;;;;;2.72;1.95;;;23.70;32.10;;;;;;6111382;28;81098;-72
2022/04/17 11:00:36;;;;;;;3.28;1.80;;;23.70;32.20;;;;;;6125898;28;80442;-71
2022/04/17 11:03:37;;;;;;;2.33;1.67;;;23.70;32.10;;;;;;6135157;28;80278;-72
2022/04/17 11:06:37;;;;;;;2.17;1.52;;;23.70;32.10;;;;;;6112451;28;80439;-72
2022/04/17 11:09:47;;;;;;;3.85;1.77;;;23.70;31.90;;;;;;6116980;28;80406;-72
2022/04/17 11:12:47;;;;;;;2.78;1.80;;;23.60;31.80;;;;;;6133123;28;83511;-72
2022/04/17 11:15:48;;;;;;;2.42;1.42;;;23.70;31.80;;;;;;6125728;28;80270;-73
2022/04/17 11:18:48;;;;;;;1.80;1.70;;;23.60;31.80;;;;;;6134969;28;80294;-72
2022/04/17 11:21:50;;;;;;;1.73;1.50;;;23.60;31.50;;;;;;6112961;28;80314;-72
2022/04/17 11:24:50;;;;;;;1.80;1.50;;;23.60;31.60;;;;;;6110507;28;80413;-72
2022/04/17 11:27:51;;;;;;;3.55;1.50;;;23.70;31.60;;;;;;6110860;28;81658;-73
2022/04/17 11:30:51;;;;;;;1.95;1.50;;;23.60;31.60;;;;;;6111056;28;81066;-72
2022/04/17 11:33:52;;;;;;;2.05;1.63;;;23.60;31.50;;;;;;6110870;28;81243;-72
2022/04/17 11:36:52;;;;;;;1.35;1.25;;;23.60;31.60;;;;;;6128989;28;80268;-72
2022/04/17 11:39:53;;;;;;;1.90;1.50;;;23.60;31.60;;;;;;6131684;28;80500;-72
2022/04/17 11:42:54;;;;;;;2.40;1.40;;;23.60;31.60;;;;;;6111015;28;80308;-72
2022/04/17 11:45:54;;;;;;;2.00;1.55;;;23.60;31.60;;;;;;6130772;28;80264;-72
2022/04/17 11:48:55;;;;;;;1.95;1.50;;;23.60;31.70;;;;;;6134772;28;80028;-73
2022/04/17 11:51:55;;;;;;;2.88;1.65;;;23.60;31.70;;;;;;6116437;28;80420;-72
2022/04/17 11:54:56;;;;;;;2.00;1.60;;;23.50;31.60;;;;;;6109824;28;81726;-72
2022/04/17 11:57:56;;;;;;;1.50;1.38;;;23.60;31.70;;;;;;6134367;28;80843;-72
2022/04/17 12:00:57;;;;;;;2.30;1.45;;;23.60;31.70;;;;;;6133676;28;80392;-72
2022/04/17 12:03:57;;;;;;;2.33;1.42;;;23.50;31.70;;;;;;6134002;28;81654;-72
2022/04/17 12:06:58;;;;;;;2.83;1.63;;;23.50;31.70;;;;;;6118909;28;79935;-71
2022/04/17 12:09:58;;;;;;;2.25;1.65;;;23.50;31.70;;;;;;6109863;28;80865;-71
2022/04/17 12:12:59;;;;;;;1.92;1.52;;;23.50;31.80;;;;;;6122589;28;81405;-73
2022/04/17 12:15:59;;;;;;;2.17;1.85;;;23.50;31.70;;;;;;6133671;28;80768;-72
2022/04/17 12:19:00;;;;;;;1.98;1.63;;;23.50;31.60;;;;;;6133431;28;81977;-72
2022/04/17 12:22:00;;;;;;;1.92;1.48;;;23.50;31.70;;;;;;6133464;28;86608;-72
2022/04/17 12:25:01;;;;;;;2.10;1.52;;;23.50;31.70;;;;;;6135341;28;80795;-72
2022/04/17 12:28:01;;;;;;;2.20;1.63;;;23.50;31.80;;;;;;6117455;28;80446;-72
2022/04/17 12:31:02;;;;;;;2.53;1.80;;;23.50;31.70;;;;;;6116482;28;80278;-72
2022/04/17 12:34:02;;;;;;;1.48;1.30;;;23.50;31.80;;;;;;6112016;28;82084;-73
2022/04/17 12:37:03;;;;;;;1.92;1.40;;;23.50;31.60;;;;;;6123774;28;80620;-73
2022/04/17 12:40:03;;;;;;;1.73;1.45;;;23.50;31.60;;;;;;6137370;28;81142;-72
2022/04/17 12:43:04;;;;;;;2.00;1.50;;;23.50;31.60;;;;;;6118937;28;80405;-72
2022/04/17 12:46:05;;;;;;;2.88;1.60;;;23.50;31.70;;;;;;6113226;28;80327;-72
2022/04/17 12:49:05;;;;;;;1.30;1.20;;;23.50;31.80;;;;;;6113280;28;80471;-72
2022/04/17 12:52:06;;;;;;;1.48;1.30;;;23.50;31.70;;;;;;6122617;28;80700;-72
2022/04/17 12:55:06;;;;;;;1.75;1.30;;;23.50;31.80;;;;;;6137432;28;81916;-72
2022/04/17 12:58:07;;;;;;;1.50;1.35;;;23.50;31.70;;;;;;6123798;28;80490;-72
2022/04/17 13:01:07;;;;;;;2.13;1.30;;;23.50;31.70;;;;;;6113054;28;80577;-72
2022/04/17 13:04:08;;;;;;;2.25;1.80;;;23.50;31.60;;;;;;6112185;28;80405;-72
2022/04/17 13:07:13;;;;;;;2.20;1.40;;;23.50;31.70;;;;;;6120528;28;80264;-72
2022/04/17 13:10:14;;;;;;;2.13;1.50;;;23.50;31.70;;;;;;6136747;28;85730;-72
2022/04/17 13:13:14;;;;;;;1.98;1.38;;;23.50;31.70;;;;;;6134735;28;81586;-73
2022/04/17 13:16:15;;;;;;;2.03;1.77;;;23.50;31.60;;;;;;6137181;28;80176;-73
2022/04/17 13:19:15;;;;;;;1.67;1.40;;;23.50;31.80;;;;;;6135391;28;81645;-72
2022/04/17 13:22:16;;;;;;;1.45;1.20;;;23.50;31.70;;;;;;6132344;28;81226;-71
2022/04/17 13:25:16;;;;;;;1.42;1.33;;;23.50;31.70;;;;;;6113610;28;80845;-73
2022/04/17 13:28:17;;;;;;;1.50;1.40;;;23.50;31.70;;;;;;6113015;28;81810;-73
2022/04/17 13:31:17;;;;;;;1.98;1.40;;;23.50;31.80;;;;;;6113051;28;80655;-73
2022/04/17 13:34:18;;;;;;;1.63;1.50;;;23.50;31.70;;;;;;6133150;28;80418;-73
2022/04/17 13:40:38;;;;;;;2.28;1.60;;;23.50;31.70;;;;;;6112974;28;80512;-73
2022/04/17 13:43:38;;;;;;;1.67;1.35;;;23.50;31.70;;;;;;6131598;28;80975;-73
2022/04/17 13:46:39;;;;;;;1.75;1.35;;;23.50;31.70;;;;;;6136542;28;80360;-74
2022/04/17 13:49:40;;;;;;;1.90;1.38;;;23.50;31.70;;;;;;6136367;28;81987;-73
2022/04/17 13:52:40;;;;;;;2.00;1.63;;;23.50;31.70;;;;;;6135518;28;80902;-73
2022/04/17 13:55:41;;;;;;;1.80;1.42;;;23.40;31.70;;;;;;6136588;28;80984;-73
2022/04/17 13:58:41;;;;;;;1.67;1.35;;;23.40;31.60;;;;;;6124658;28;80566;-72
2022/04/17 14:01:42;;;;;;;2.05;1.60;;;23.40;31.60;;;;;;6111844;28;80311;-73
2022/04/17 14:04:42;;;;;;;2.35;1.65;;;23.40;31.70;;;;;;6130314;28;80578;-72
2022/04/17 14:07:43;;;;;;;2.35;1.52;;;23.40;31.70;;;;;;6135591;28;80843;-72
2022/04/17 14:10:43;;;;;;;1.40;1.30;;;23.40;31.70;;;;;;6134572;28;83271;-72
2022/04/17 14:13:44;;;;;;;3.33;1.83;;;23.40;31.60;;;;;;6135611;28;80384;-73
2022/04/17 14:16:45;;;;;;;1.88;1.27;;;23.40;31.70;;;;;;6136142;28;80924;-73
2022/04/17 14:19:45;;;;;;;1.48;1.23;;;23.40;31.70;;;;;;6118922;28;81643;-73
2022/04/17 14:22:46;;;;;;;2.38;1.60;;;23.40;31.50;;;;;;6112120;28;80275;-72
2022/04/17 14:25:46;;;;;;;1.42;1.23;;;23.40;31.60;;;;;;6136179;28;80851;-73
2022/04/17 14:28:47;;;;;;;1.90;1.30;;;23.40;31.60;;;;;;6129631;28;80963;-73
2022/04/17 14:31:47;;;;;;;1.88;1.40;;;23.40;31.60;;;;;;6112797;28;81334;-73
2022/04/17 14:34:48;;;;;;;4.18;1.60;;;23.40;31.60;;;;;;6121253;28;80871;-73
2022/04/17 14:37:48;;;;;;;1.70;1.60;;;23.40;31.60;;;;;;6111797;28;81745;-73
2022/04/17 14:40:49;;;;;;;6.53;1.65;;;23.40;31.60;;;;;;6112977;28;80909;-73
2022/04/17 14:43:49;;;;;;;1.45;1.20;;;23.40;31.60;;;;;;6131609;28;80917;-73
2022/04/17 14:46:50;;;;;;;1.40;1.30;;;23.40;31.60;;;;;;6135799;28;80484;-73
2022/04/17 14:49:51;;;;;;;1.63;1.48;;;23.40;31.60;;;;;;6123030;28;81373;-71
2022/04/17 14:52:51;;;;;;;1.88;1.52;;;23.40;31.60;;;;;;6112195;28;80516;-73
2022/04/17 14:55:52;;;;;;;2.65;1.60;;;23.40;31.60;;;;;;6131230;28;81379;-73
2022/04/17 14:58:52;;;;;;;2.13;1.40;;;23.40;31.60;;;;;;6135381;28;80941;-72
2022/04/17 15:01:53;;;;;;;1.83;1.42;;;23.40;31.60;;;;;;6134607;28;80533;-73
2022/04/17 15:04:54;;;;;;;1.83;1.50;;;23.40;31.60;;;;;;6133625;28;80065;-72
2022/04/17 15:07:54;;;;;;;1.40;1.30;;;23.40;31.50;;;;;;6134858;28;80895;-72
2022/04/17 15:10:55;;;;;;;2.25;1.60;;;23.40;31.60;;;;;;6116959;28;80373;-72
2022/04/17 15:13:56;;;;;;;2.35;1.70;;;23.40;31.60;;;;;;6110103;28;81522;-73
2022/04/17 15:16:58;;;;;;;2.78;1.85;;;23.50;31.60;;;;;;6134973;28;81424;-73
2022/04/17 15:19:58;;;;;;;2.40;1.55;;;23.40;31.60;;;;;;6124749;28;81656;-73
2022/04/17 15:22:59;;;;;;;3.10;1.77;;;23.40;31.60;;;;;;6110633;28;81916;-72
2022/04/17 15:25:59;;;;;;;2.72;1.60;;;23.40;31.60;;;;;;6126225;28;80415;-74
2022/04/17 15:29:00;;;;;;;1.55;1.45;;;23.40;31.70;;;;;;6128063;28;80942;-73
2022/04/17 15:32:00;;;;;;;2.60;1.77;;;23.40;31.70;;;;;;6133607;28;80764;-74
2022/04/17 15:35:01;;;;;;;2.75;1.70;;;23.40;31.60;;;;;;6134708;28;80500;-73
2022/04/17 15:38:01;;;;;;;2.47;1.92;;;23.40;31.60;;;;;;6134655;28;80621;-73
2022/04/17 15:41:02;;;;;;;1.92;1.63;;;23.40;31.70;;;;;;6121144;28;80402;-73
2022/04/17 15:50:41;;;;;;;2.42;1.75;;;23.40;31.60;;;;;;6133203;28;81856;-73
2022/04/17 15:53:42;;;;;;;2.17;1.60;;;23.40;31.60;;;;;;6134678;28;80278;-73
2022/04/17 15:56:43;;;;;;;2.15;1.58;;;23.40;31.70;;;;;;6120984;28;80720;-73
2022/04/17 15:59:44;;;;;;;2.30;1.80;;;23.40;31.70;;;;;;6132542;28;80325;-73
2022/04/17 16:02:44;;;;;;;2.22;1.50;;;23.40;31.70;;;;;;6137125;28;80317;-73
2022/04/17 16:05:48;;;;;;;2.05;1.50;;;23.40;31.70;;;;;;6138247;28;80184;-73